Time;durP1;ratioP1;P1;durP2;ratioP2;P2;SDS_P1;SDS_P2;PMS_P1;PMS_P2;Temp;Humidity;BMP_temperature;BMP_pressure;BME280_temperature;BME280_humidity;BME280_pressure;Samples;Min_cycle;Max_cycle;Signal;HPM_P1;HPM_P2
2022/09/25 00:00:16;;;;;;;;;;;;;;;6.73;100.00;100258.28;3057221;19;19932;-49
2022/09/25 00:01:21;;;;;;;;;;;;;;;6.71;100.00;100255.69;3056947;19;19918;-48
2022/09/25 00:02:23;;;;;;;;;;;;;;;6.68;100.00;100263.78;3057331;19;19923;-50
2022/09/25 00:03:28;;;;;;;;;;;;;;;6.65;100.00;100255.13;3057087;19;19933;-49
2022/09/25 00:04:31;;;;;;;;;;;;;;;6.62;100.00;100261.47;3057218;19;19922;-50
2022/09/25 00:05:38;;;;;;;;;;;;;;;6.61;100.00;100254.44;3056589;19;20550;-49
2022/09/25 00:06:40;;;;;;;;;;;;;;;6.58;100.00;100254.56;3057091;19;19923;-48
2022/09/25 00:07:45;;;;;;;;;;;;;;;6.56;100.00;100256.44;3057455;19;19914;-48
2022/09/25 00:08:47;;;;;;;;;;;;;;;6.52;100.00;100254.84;3057224;19;19922;-48
2022/09/25 00:09:52;;;;;;;;;;;;;;;6.51;100.00;100253.16;3057057;19;19919;-48
2022/09/25 00:10:53;;;;;;;;;;;;;;;6.49;100.00;100260.34;3055944;19;19927;-50
2022/09/25 00:11:59;;;;;;;;;;;;;;;6.45;100.00;100256.97;3057343;19;19922;-51
2022/09/25 00:13:01;;;;;;;;;;;;;;;6.44;100.00;100246.44;3057019;19;19935;-48
2022/09/25 00:14:06;;;;;;;;;;;;;;;6.43;100.00;100250.00;3057107;19;19923;-48
2022/09/25 00:15:08;;;;;;;;;;;;;;;6.39;100.00;100254.63;3056709;19;19914;-50
2022/09/25 00:16:13;;;;;;;;;;;;;;;6.38;100.00;100252.91;3056450;19;20633;-50
2022/09/25 00:17:15;;;;;;;;;;;;;;;6.37;100.00;100252.97;3056911;19;20349;-48
2022/09/25 00:19:48;;;;;;;;;;;;;;;6.35;100.00;100249.53;3057033;19;19922;-49
2022/09/25 00:19:51;;;;;;;;;;;;;;;6.33;100.00;100249.59;3055716;19;19919;-47
2022/09/25 00:20:59;;;;;;;;;;;;;;;6.32;100.00;100247.03;3056981;19;19919;-50
2022/09/25 00:22:01;;;;;;;;;;;;;;;6.31;100.00;100245.31;3056827;19;19923;-49
2022/09/25 00:23:06;;;;;;;;;;;;;;;6.29;100.00;100247.16;3056832;19;19919;-49
2022/09/25 00:24:08;;;;;;;;;;;;;;;6.28;100.00;100250.78;3056970;19;19911;-48
2022/09/25 00:25:14;;;;;;;;;;;;;;;6.28;100.00;100250.78;3056831;19;19919;-48
2022/09/25 00:26:16;;;;;;;;;;;;;;;6.25;100.00;100246.47;3056794;19;20258;-49
2022/09/25 00:27:21;;;;;;;;;;;;;;;6.22;100.00;100241.31;3057002;19;19930;-51
2022/09/25 00:28:23;;;;;;;;;;;;;;;6.21;100.00;100249.31;3055989;19;19930;-49
2022/09/25 00:29:29;;;;;;;;;;;;;;;6.18;100.00;100245.03;3055997;19;19978;-49
2022/09/25 00:30:31;;;;;;;;;;;;;;;6.16;100.00;100243.41;3056480;19;20019;-47
2022/09/25 00:31:36;;;;;;;;;;;;;;;6.13;100.00;100242.63;3056892;19;19927;-50
2022/09/25 00:32:38;;;;;;;;;;;;;;;6.10;100.00;100242.75;3056768;19;20382;-50
2022/09/25 00:33:42;;;;;;;;;;;;;;;6.09;100.00;100246.31;3056662;19;19925;-50
2022/09/25 00:34:44;;;;;;;;;;;;;;;6.09;100.00;100234.88;3056565;19;19923;-49
2022/09/25 00:35:49;;;;;;;;;;;;;;;6.10;100.00;100237.44;3056904;19;19928;-50
2022/09/25 00:36:50;;;;;;;;;;;;;;;6.10;100.00;100226.84;3056652;19;19918;-50
2022/09/25 00:37:55;;;;;;;;;;;;;;;6.12;100.00;100232.09;3056431;19;19934;-49
2022/09/25 00:38:57;;;;;;;;;;;;;;;6.12;100.00;100222.34;3056976;19;19930;-50
2022/09/25 00:40:01;;;;;;;;;;;;;;;6.14;100.00;100224.94;3056584;19;19923;-49
2022/09/25 00:41:04;;;;;;;;;;;;;;;6.16;100.00;100227.50;3056861;19;19926;-50
2022/09/25 00:42:08;;;;;;;;;;;;;;;6.14;100.00;100228.44;3056609;19;20133;-49
2022/09/25 00:43:14;;;;;;;;;;;;;;;6.14;100.00;100220.50;3056580;19;19930;-50
2022/09/25 00:44:37;;;;;;;;;;;;;;;6.14;100.00;100223.13;3056187;19;19950;-49
2022/09/25 00:45:39;;;;;;;;;;;;;;;6.16;100.00;100216.91;3056729;19;19919;-50
2022/09/25 00:46:44;;;;;;;;;;;;;;;6.14;100.00;100223.13;3056418;19;19947;-50
2022/09/25 00:47:49;;;;;;;;;;;;;;;6.14;100.00;100217.84;3055958;19;20004;-47
2022/09/25 00:48:55;;;;;;;;;;;;;;;6.12;100.00;100214.41;3055476;19;20338;-48
2022/09/25 00:49:57;;;;;;;;;;;;;;;6.10;100.00;100205.66;3055855;19;19922;-47
2022/09/25 00:51:01;;;;;;;;;;;;;;;6.10;100.00;100213.59;3055240;19;19922;-48
2022/09/25 00:52:06;;;;;;;;;;;;;;;6.10;100.00;100210.09;3055456;19;19978;-48
2022/09/25 00:53:12;;;;;;;;;;;;;;;6.09;100.00;100211.88;3055290;19;19958;-49
2022/09/25 00:54:17;;;;;;;;;;;;;;;6.10;100.00;100212.75;3055773;19;19922;-48
2022/09/25 00:55:22;;;;;;;;;;;;;;;6.10;100.00;100205.66;3055516;19;20274;-49
2022/09/25 00:56:24;;;;;;;;;;;;;;;6.10;100.00;100210.97;3055762;19;19919;-49
2022/09/25 00:57:29;;;;;;;;;;;;;;;6.09;100.00;100214.53;3055385;19;20067;-49
2022/09/25 00:58:32;;;;;;;;;;;;;;;6.08;100.00;100212.81;3056634;19;19921;-46
2022/09/25 00:59:38;;;;;;;;;;;;;;;6.07;100.00;100208.44;3055297;19;19926;-49
2022/09/25 01:00:40;;;;;;;;;;;;;;;6.06;100.00;100217.31;3055954;19;19935;-47
2022/09/25 01:01:44;;;;;;;;;;;;;;;6.03;100.00;100214.84;3056173;19;19935;-47
2022/09/25 01:02:51;;;;;;;;;;;;;;;6.03;100.00;100214.84;3056613;19;20278;-47
2022/09/25 01:03:57;;;;;;;;;;;;;;;6.02;100.00;100206.97;3055583;19;19936;-48
2022/09/25 01:05:00;;;;;;;;;;;;;;;6.01;100.00;100207.91;3055452;19;19927;-48
2022/09/25 01:06:04;;;;;;;;;;;;;;;6.00;100.00;100208.81;3055388;19;20028;-50
2022/09/25 01:07:07;;;;;;;;;;;;;;;5.98;100.00;100208.88;3055414;19;19927;-50
2022/09/25 01:08:14;;;;;;;;;;;;;;;5.98;100.00;100211.53;3056488;19;19923;-48
2022/09/25 01:09:16;;;;;;;;;;;;;;;5.96;100.00;100210.75;3055950;19;19933;-49
2022/09/25 01:10:21;;;;;;;;;;;;;;;5.95;100.00;100216.97;3055824;19;19930;-50
2022/09/25 01:11:25;;;;;;;;;;;;;;;5.95;100.00;100209.03;3054514;19;20244;-49
2022/09/25 01:12:27;;;;;;;;;;;;;;;5.94;100.00;100214.41;3056446;19;19923;-47
2022/09/25 01:13:31;;;;;;;;;;;;;;;5.93;100.00;100210.88;3055936;19;19987;-48
2022/09/25 01:14:33;;;;;;;;;;;;;;;5.91;100.00;100204.81;3056438;19;20625;-49
2022/09/25 01:15:40;;;;;;;;;;;;;;;5.92;100.00;100210.94;3055378;19;19919;-49
2022/09/25 01:16:42;;;;;;;;;;;;;;;5.93;100.00;100212.66;3055173;19;19926;-48
2022/09/25 01:18:03;;;;;;;;;;;;;;;5.90;100.00;100203.09;3055335;19;20383;-50
2022/09/25 01:19:05;;;;;;;;;;;;;;;5.92;100.00;100201.22;3056383;19;19926;-50
2022/09/25 01:20:14;;;;;;;;;;;;;;;5.93;100.00;100202.94;3056199;19;19929;-49
2022/09/25 01:21:39;;;;;;;;;;;;;;;5.94;100.00;100204.66;3055093;19;19923;-48
2022/09/25 01:22:56;;;;;;;;;;;;;;;5.95;100.00;100206.38;3055109;19;19922;-49
2022/09/25 01:23:58;;;;;;;;;;;;;;;5.94;100.00;100199.38;3055890;19;20339;-48
2022/09/25 01:25:05;;;;;;;;;;;;;;;5.96;100.00;100208.09;3056131;19;20013;-50
2022/09/25 01:26:07;;;;;;;;;;;;;;;5.96;100.00;100197.50;3056026;19;20327;-49
2022/09/25 01:27:28;;;;;;;;;;;;;;;5.97;100.00;100196.56;3056135;19;20075;-50
2022/09/25 01:28:49;;;;;;;;;;;;;;;5.98;100.00;100200.94;3056069;19;19932;-48
2022/09/25 01:30:02;;;;;;;;;;;;;;;6.02;100.00;100202.53;3056058;19;19919;-47
2022/09/25 01:31:07;;;;;;;;;;;;;;;6.03;100.00;100198.09;3056288;19;19915;-50
2022/09/25 01:32:24;;;;;;;;;;;;;;;6.04;100.00;100197.13;3056500;19;19915;-47
2022/09/25 01:33:33;;;;;;;;;;;;;;;6.03;100.00;100193.66;3056204;19;19927;-47
2022/09/25 01:34:41;;;;;;;;;;;;;;;6.02;100.00;100197.22;3055083;19;20231;-49
2022/09/25 01:35:45;;;;;;;;;;;;;;;6.00;100.00;100193.78;3055282;19;19998;-47
2022/09/25 01:36:50;;;;;;;;;;;;;;;5.98;100.00;100193.00;3055330;19;19923;-47
2022/09/25 01:37:54;;;;;;;;;;;;;;;5.96;100.00;100196.66;3055198;19;20414;-50
2022/09/25 01:38:59;;;;;;;;;;;;;;;5.93;100.00;100195.00;3055393;19;20167;-50
2022/09/25 01:40:17;;;;;;;;;;;;;;;5.91;100.00;100188.94;3055275;19;20008;-47
2022/09/25 01:41:24;;;;;;;;;;;;;;;5.91;100.00;100193.38;3055088;19;19919;-49
2022/09/25 01:42:30;;;;;;;;;;;;;;;5.89;100.00;100189.94;3055368;19;19986;-50
2022/09/25 01:43:54;;;;;;;;;;;;;;;5.88;100.00;100194.38;3055637;19;19915;-50
2022/09/25 01:44:58;;;;;;;;;;;;;;;5.87;100.00;100187.31;3055622;19;20006;-49
2022/09/25 01:46:04;;;;;;;;;;;;;;;5.87;100.00;100191.75;3055381;19;19970;-50
2022/09/25 01:47:09;;;;;;;;;;;;;;;5.84;100.00;100187.47;3055008;19;19927;-49
2022/09/25 01:48:15;;;;;;;;;;;;;;;5.82;100.00;100184.00;3055348;19;19926;-48
2022/09/25 01:49:17;;;;;;;;;;;;;;;5.82;100.00;100184.00;3055263;19;19922;-48
2022/09/25 01:50:45;;;;;;;;;;;;;;;5.81;100.00;100187.59;3054952;19;19947;-49
2022/09/25 01:51:51;;;;;;;;;;;;;;;5.80;100.00;100184.09;3054822;19;19980;-48
2022/09/25 01:52:56;;;;;;;;;;;;;;;5.80;100.00;100185.88;3056023;19;20016;-51
2022/09/25 01:53:59;;;;;;;;;;;;;;;5.79;100.00;100185.03;3055246;19;19927;-48
2022/09/25 01:55:19;;;;;;;;;;;;;;;5.78;100.00;100188.63;3054866;19;20627;-50
2022/09/25 01:56:31;;;;;;;;;;;;;;;5.77;100.00;100186.03;3055060;19;19954;-49
2022/09/25 01:57:38;;;;;;;;;;;;;;;5.76;100.00;100181.69;3055015;19;19922;-48
2022/09/25 01:58:41;;;;;;;;;;;;;;;5.75;100.00;100185.25;3055379;19;19990;-47
2022/09/25 01:59:51;;;;;;;;;;;;;;;5.74;100.00;100175.59;3054806;19;19974;-48
2022/09/25 02:00:55;;;;;;;;;;;;;;;5.73;100.00;100176.50;3055151;19;19923;-49
2022/09/25 02:02:01;;;;;;;;;;;;;;;5.72;100.00;100180.09;3055135;19;19930;-48
2022/09/25 02:03:14;;;;;;;;;;;;;;;5.73;100.00;100182.66;3055791;19;19925;-48
2022/09/25 02:04:21;;;;;;;;;;;;;;;5.72;100.00;100180.09;3054834;19;20013;-47
2022/09/25 02:05:28;;;;;;;;;;;;;;;5.70;100.00;100174.00;3055023;19;19923;-49
2022/09/25 02:06:33;;;;;;;;;;;;;;;5.67;100.00;100175.03;3055156;19;20006;-50
2022/09/25 02:07:36;;;;;;;;;;;;;;;5.67;100.00;100174.16;3054919;19;19919;-49
2022/09/25 02:08:42;;;;;;;;;;;;;;;5.66;100.00;100173.31;3055731;19;19984;-47
2022/09/25 02:09:51;;;;;;;;;;;;;;;5.66;100.00;100170.66;3055553;19;19919;-49
2022/09/25 02:10:57;;;;;;;;;;;;;;;5.66;100.00;100175.09;3054801;19;19986;-50
2022/09/25 02:12:00;;;;;;;;;;;;;;;5.65;100.00;100173.38;3054398;19;19943;-48
2022/09/25 02:13:09;;;;;;;;;;;;;;;5.64;100.00;100176.94;3055241;19;19922;-47
2022/09/25 02:14:14;;;;;;;;;;;;;;;5.63;100.00;100178.72;3054565;19;19989;-49
2022/09/25 02:15:20;;;;;;;;;;;;;;;5.63;100.00;100180.53;3054900;19;20012;-49
2022/09/25 02:16:25;;;;;;;;;;;;;;;5.60;100.00;100170.06;3055034;19;19947;-47
2022/09/25 02:21:22;;;;;;;;;;;;;;;5.54;100.00;100167.72;3054947;19;19915;-47
2022/09/25 02:22:24;;;;;;;;;;;;;;;5.54;100.00;100165.06;3054915;19;20008;-49
2022/09/25 02:23:32;;;;;;;;;;;;;;;5.51;100.00;100160.78;3054769;19;19978;-49
2022/09/25 02:24:55;;;;;;;;;;;;;;;5.52;100.00;100164.28;3054878;19;19931;-47
2022/09/25 02:26:13;;;;;;;;;;;;;;;5.50;100.00;100155.53;3055644;19;19953;-48
2022/09/25 02:27:15;;;;;;;;;;;;;;;5.51;100.00;100151.97;3054564;19;19927;-50
2022/09/25 02:28:19;;;;;;;;;;;;;;;5.51;100.00;100157.28;3054648;19;19918;-49
2022/09/25 02:29:22;;;;;;;;;;;;;;;5.49;100.00;100153.81;3054736;19;20349;-48
2022/09/25 02:30:27;;;;;;;;;;;;;;;5.48;100.00;100152.09;3055271;19;19919;-48
2022/09/25 02:31:31;;;;;;;;;;;;;;;5.46;100.00;100152.16;3055541;19;19923;-47
2022/09/25 02:32:35;;;;;;;;;;;;;;;5.48;100.00;100150.31;3054841;19;19989;-50
2022/09/25 02:33:37;;;;;;;;;;;;;;;5.46;100.00;100146.03;3055298;19;19944;-48
2022/09/25 02:34:41;;;;;;;;;;;;;;;5.45;100.00;100147.81;3054419;19;19922;-50
2022/09/25 02:35:43;;;;;;;;;;;;;;;5.44;100.00;100141.66;3054871;19;19943;-49
2022/09/25 02:36:48;;;;;;;;;;;;;;;5.46;100.00;100146.03;3054534;19;19990;-50
2022/09/25 02:37:50;;;;;;;;;;;;;;;5.43;100.00;100142.59;3055443;19;20284;-47
2022/09/25 02:38:54;;;;;;;;;;;;;;;5.43;100.00;100150.53;3055158;19;19927;-49
2022/09/25 02:39:57;;;;;;;;;;;;;;;5.42;100.00;100143.53;3055655;19;19955;-50
2022/09/25 02:41:06;;;;;;;;;;;;;;;5.42;100.00;100151.47;3055072;19;19919;-47
2022/09/25 02:42:27;;;;;;;;;;;;;;;5.41;100.00;100144.47;3054763;19;20031;-47
2022/09/25 02:43:31;;;;;;;;;;;;;;;5.39;100.00;100142.81;3057650;19;19919;-48
2022/09/25 02:44:51;;;;;;;;;;;;;;;5.37;100.00;100150.81;3058730;19;19927;-50
2022/09/25 02:45:56;;;;;;;;;;;;;;;5.36;100.00;100149.09;3058235;19;19923;-48
2022/09/25 02:47:13;;;;;;;;;;;;;;;5.35;100.00;100143.88;3058506;19;19994;-50
2022/09/25 02:48:24;;;;;;;;;;;;;;;5.33;100.00;100148.38;3058313;19;19936;-48
2022/09/25 02:49:26;;;;;;;;;;;;;;;5.32;100.00;100147.50;3057307;19;19986;-48
2022/09/25 02:50:30;;;;;;;;;;;;;;;5.32;100.00;100144.88;3057598;19;19919;-47
2022/09/25 02:51:37;;;;;;;;;;;;;;;5.32;100.00;100151.94;3058203;19;19990;-47
2022/09/25 02:52:54;;;;;;;;;;;;;;;5.30;100.00;100149.38;3056926;19;19982;-49
2022/09/25 02:53:59;;;;;;;;;;;;;;;5.28;100.00;100140.66;3057237;19;20033;-50
2022/09/25 02:55:21;;;;;;;;;;;;;;;5.29;100.00;100138.88;3057628;19;19952;-49
2022/09/25 02:56:31;;;;;;;;;;;;;;;5.29;100.00;100136.22;3057346;19;20278;-48
2022/09/25 02:57:47;;;;;;;;;;;;;;;5.29;100.00;100142.38;3057464;19;19919;-48
2022/09/25 02:58:50;;;;;;;;;;;;;;;5.28;100.00;100138.00;3057704;19;19923;-46
2022/09/25 02:59:55;;;;;;;;;;;;;;;5.28;100.00;100138.00;3057322;19;19919;-49
2022/09/25 03:00:57;;;;;;;;;;;;;;;5.29;100.00;100142.38;3057523;19;20126;-48
2022/09/25 03:02:01;;;;;;;;;;;;;;;5.28;100.00;100135.38;3057053;19;19927;-48
2022/09/25 03:03:03;;;;;;;;;;;;;;;5.29;100.00;100138.88;3057396;19;19919;-48
2022/09/25 03:04:08;;;;;;;;;;;;;;;5.29;100.00;100137.09;3057222;19;19914;-49
2022/09/25 03:05:10;;;;;;;;;;;;;;;5.30;100.00;100137.94;3057560;19;20343;-49
2022/09/25 03:06:14;;;;;;;;;;;;;;;5.29;100.00;100139.72;3056910;19;20330;-47
2022/09/25 03:07:16;;;;;;;;;;;;;;;5.28;100.00;100134.50;3057368;19;20324;-48
2022/09/25 03:09:38;;;;;;;;;;;;;;;5.32;100.00;100125.47;3057646;19;19922;-50
2022/09/25 03:10:44;;;;;;;;;;;;;;;5.33;100.00;100128.06;3056897;19;19911;-47
2022/09/25 03:11:59;;;;;;;;;;;;;;;5.35;100.00;100128.84;3043342;19;19943;31
2022/09/25 03:13:22;;;;;;;;;;;;;;;5.35;100.00;100128.84;3055109;19;19931;-47
2022/09/25 03:14:26;;;;;;;;;;;;;;;5.36;100.00;100124.44;3057578;19;19948;-48
2022/09/25 03:15:28;;;;;;;;;;;;;;;5.35;100.00;100131.50;3055773;19;20388;-47
2022/09/25 03:16:33;;;;;;;;;;;;;;;5.34;100.00;100124.50;3057128;19;19927;-47
2022/09/25 03:17:36;;;;;;;;;;;;;;;5.34;100.00;100132.44;3058086;19;19923;-50
2022/09/25 03:18:40;;;;;;;;;;;;;;;5.34;100.00;100129.78;3058086;19;19934;-47
2022/09/25 03:19:42;;;;;;;;;;;;;;;5.32;100.00;100121.06;3057446;19;20356;-49
2022/09/25 03:20:46;;;;;;;;;;;;;;;5.33;100.00;100125.41;3058086;19;19940;-48
2022/09/25 03:21:53;;;;;;;;;;;;;;;5.31;100.00;100129.91;3057778;19;19939;-47
2022/09/25 03:22:54;;;;;;;;;;;;;;;5.30;100.00;100117.66;3057957;19;20555;-49
2022/09/25 03:23:59;;;;;;;;;;;;;;;5.30;100.00;100122.06;3057913;19;19940;-49
2022/09/25 03:25:01;;;;;;;;;;;;;;;5.31;100.00;100124.63;3057783;19;19982;-47
2022/09/25 03:26:06;;;;;;;;;;;;;;;5.30;100.00;100122.94;3057665;19;19919;-48
2022/09/25 03:27:08;;;;;;;;;;;;;;;5.30;100.00;100122.94;3058106;19;19934;-49
2022/09/25 03:28:13;;;;;;;;;;;;;;;5.29;100.00;100121.22;3057565;19;19922;-47
2022/09/25 03:29:16;;;;;;;;;;;;;;;5.30;100.00;100122.06;3057969;19;19936;-47
2022/09/25 03:30:20;;;;;;;;;;;;;;;5.29;100.00;100120.34;3057536;19;19911;-48
2022/09/25 03:31:22;;;;;;;;;;;;;;;5.28;100.00;100119.50;3057947;19;19922;-49
2022/09/25 03:32:26;;;;;;;;;;;;;;;5.26;100.00;100124.00;3057336;19;20226;-49
2022/09/25 03:33:29;;;;;;;;;;;;;;;5.26;100.00;100125.78;3056862;19;19997;-48
2022/09/25 03:34:33;;;;;;;;;;;;;;;5.24;100.00;100128.50;3057373;19;19915;-50
2022/09/25 03:35:36;;;;;;;;;;;;;;;5.18;100.00;100123.50;3057672;19;19937;-49
2022/09/25 03:36:40;;;;;;;;;;;;;;;5.22;100.00;100130.34;3057793;19;19919;-49
2022/09/25 03:37:42;;;;;;;;;;;;;;;5.23;100.00;100126.78;3057626;19;19923;-48
2022/09/25 03:38:48;;;;;;;;;;;;;;;5.22;100.00;100129.47;3057573;19;19918;-46
2022/09/25 03:39:49;;;;;;;;;;;;;;;5.21;100.00;100122.47;3057868;19;19918;-49
2022/09/25 03:40:54;;;;;;;;;;;;;;;5.21;100.00;100123.34;3057927;19;20023;-47
2022/09/25 03:41:58;;;;;;;;;;;;;;;5.19;100.00;100125.22;3057612;19;19930;-48
2022/09/25 03:43:01;;;;;;;;;;;;;;;5.21;100.00;100128.63;3057417;19;20601;-46
2022/09/25 03:44:05;;;;;;;;;;;;;;;5.21;100.00;100125.13;3057725;19;19935;-49
2022/09/25 03:45:08;;;;;;;;;;;;;;;5.21;100.00;100125.97;3057392;19;19937;-50
2022/09/25 03:46:13;;;;;;;;;;;;;;;5.22;100.00;100126.84;3056731;19;19941;-48
2022/09/25 03:47:15;;;;;;;;;;;;;;;5.20;100.00;100126.03;3056647;19;19944;-49
2022/09/25 03:48:20;;;;;;;;;;;;;;;5.19;100.00;100125.22;3057420;19;19919;-49
2022/09/25 03:49:24;;;;;;;;;;;;;;;5.19;100.00;100129.66;3059061;19;20024;-48
2022/09/25 03:50:26;;;;;;;;;;;;;;;5.19;100.00;100125.22;3057683;19;20012;-48
2022/09/25 03:51:32;;;;;;;;;;;;;;;5.19;100.00;100124.34;3057538;19;19957;-48
2022/09/25 03:52:34;;;;;;;;;;;;;;;5.18;100.00;100126.13;3057361;19;19960;-48
2022/09/25 03:53:38;;;;;;;;;;;;;;;5.19;100.00;100125.22;3055636;19;19922;-50
2022/09/25 03:54:40;;;;;;;;;;;;;;;5.19;100.00;100127.84;3056343;19;19947;-49
2022/09/25 03:55:45;;;;;;;;;;;;;;;5.19;100.00;100127.84;3057151;19;19936;-48
2022/09/25 03:56:50;;;;;;;;;;;;;;;5.19;100.00;100125.22;3057446;19;19922;-47
2022/09/25 03:57:52;;;;;;;;;;;;;;;5.17;100.00;100124.41;3057073;19;20567;-49
2022/09/25 03:58:56;;;;;;;;;;;;;;;5.17;100.00;100131.50;3056714;19;20008;-50
2022/09/25 04:00:00;;;;;;;;;;;;;;;5.17;100.00;100129.72;3056264;19;19927;-47
2022/09/25 04:01:17;;;;;;;;;;;;;;;5.15;100.00;100123.63;3057047;19;19930;-50
2022/09/25 04:02:19;;;;;;;;;;;;;;;5.13;100.00;100125.47;3057327;19;19931;-48
2022/09/25 04:03:25;;;;;;;;;;;;;;;5.10;100.00;100125.59;3056934;19;20247;-48
2022/09/25 04:04:28;;;;;;;;;;;;;;;5.10;100.00;100130.91;3057434;19;20004;-48
2022/09/25 04:05:33;;;;;;;;;;;;;;;5.08;100.00;100130.09;3057198;19;19922;-47
2022/09/25 04:06:35;;;;;;;;;;;;;;;5.06;100.00;100134.63;3057525;19;20024;-47
2022/09/25 04:07:40;;;;;;;;;;;;;;;5.04;100.00;100126.75;3057261;19;19922;-48
2022/09/25 04:08:41;;;;;;;;;;;;;;;5.04;100.00;100125.91;3057292;19;20641;-50
2022/09/25 04:09:46;;;;;;;;;;;;;;;5.02;100.00;100130.38;3057156;19;19978;-48
2022/09/25 04:10:48;;;;;;;;;;;;;;;5.02;100.00;100133.03;3057018;19;19915;-49
2022/09/25 04:11:54;;;;;;;;;;;;;;;5.00;100.00;100126.94;3056759;19;19919;-48
2022/09/25 04:12:56;;;;;;;;;;;;;;;5.01;100.00;100128.66;3056699;19;19931;-47
2022/09/25 04:14:00;;;;;;;;;;;;;;;5.01;100.00;100115.44;3056452;19;19919;-47
2022/09/25 04:15:02;;;;;;;;;;;;;;;5.02;100.00;100127.75;3057164;19;19918;-47
2022/09/25 04:16:07;;;;;;;;;;;;;;;5.02;100.00;100122.47;3057164;19;19939;-48
2022/09/25 04:17:10;;;;;;;;;;;;;;;5.04;100.00;100120.59;3057083;19;20345;-48
2022/09/25 04:18:14;;;;;;;;;;;;;;;5.06;100.00;100116.13;3056051;19;20417;-48
2022/09/25 04:19:16;;;;;;;;;;;;;;;5.08;100.00;100127.44;3056449;19;19931;-49
2022/09/25 04:20:21;;;;;;;;;;;;;;;5.09;100.00;100118.59;3056723;19;19919;-49
2022/09/25 04:21:22;;;;;;;;;;;;;;;5.10;100.00;100127.38;3057080;19;19939;-48
2022/09/25 04:22:27;;;;;;;;;;;;;;;5.13;100.00;100127.25;3056538;19;19923;-50
2022/09/25 04:23:29;;;;;;;;;;;;;;;5.14;100.00;100119.25;3056991;19;20314;-49
2022/09/25 04:25:50;;;;;;;;;;;;;;;5.19;100.00;100113.78;3057360;19;19992;-49
2022/09/25 04:26:52;;;;;;;;;;;;;;;5.19;100.00;100114.63;3057791;19;19915;-49
2022/09/25 04:27:57;;;;;;;;;;;;;;;5.21;100.00;100120.69;3058176;19;19927;-50
2022/09/25 04:29:00;;;;;;;;;;;;;;;5.22;100.00;100114.47;3058003;19;19927;-49
2022/09/25 04:30:05;;;;;;;;;;;;;;;5.23;100.00;100110.91;3058135;19;19942;-50
2022/09/25 04:31:07;;;;;;;;;;;;;;;5.25;100.00;100119.63;3057794;19;20352;-49
2022/09/25 04:34:46;;;;;;;;;;;;;;;5.31;100.00;100111.41;3056449;19;20303;-48
2022/09/25 04:35:48;;;;;;;;;;;;;;;5.33;100.00;100120.13;3056838;19;20274;-48
2022/09/25 04:36:52;;;;;;;;;;;;;;;5.35;100.00;100112.13;3057006;19;20338;-49
2022/09/25 04:37:54;;;;;;;;;;;;;;;5.36;100.00;100112.06;3057400;19;20272;-49
2022/09/25 04:38:58;;;;;;;;;;;;;;;5.39;100.00;100116.34;3057655;19;20413;-49
2022/09/25 04:40:00;;;;;;;;;;;;;;;5.42;100.00;100122.38;3003949;19;20325;-47
2022/09/25 04:41:06;;;;;;;;;;;;;;;5.45;100.00;100116.06;3056853;19;19978;-49
2022/09/25 04:42:08;;;;;;;;;;;;;;;5.49;100.00;100116.78;3057863;19;19926;-48
2022/09/25 04:43:13;;;;;;;;;;;;;;;5.52;100.00;100111.34;3056400;19;20423;-48
2022/09/25 04:44:15;;;;;;;;;;;;;;;5.56;100.00;100112.91;3056567;19;20314;-48
2022/09/25 04:45:19;;;;;;;;;;;;;;;5.60;100.00;100114.47;3056656;19;20063;-50
2022/09/25 04:46:21;;;;;;;;;;;;;;;5.64;100.00;100108.13;3056597;19;19989;-48
2022/09/25 04:47:28;;;;;;;;;;;;;;;5.67;100.00;100115.94;3055966;19;19919;-47
2022/09/25 04:48:31;;;;;;;;;;;;;;;5.71;100.00;100107.75;3056455;19;20338;-49
2022/09/25 04:49:36;;;;;;;;;;;;;;;5.74;100.00;100098.81;3056357;19;19923;-49
2022/09/25 04:50:41;;;;;;;;;;;;;;;5.79;100.00;100100.31;3056799;19;20596;-48
2022/09/25 04:51:42;;;;;;;;;;;;;;;5.82;100.00;100099.28;3056273;19;19978;-48
2022/09/25 04:52:48;;;;;;;;;;;;;;;5.86;100.00;100095.56;3056489;19;20030;-48
2022/09/25 04:53:50;;;;;;;;;;;;;;;5.91;100.00;100098.91;3056573;19;19922;-49
2022/09/25 04:54:55;;;;;;;;;;;;;;;5.94;100.00;100093.44;3056450;19;19922;-48
2022/09/25 04:56:00;;;;;;;;;;;;;;;5.97;100.00;100095.94;3056388;19;19943;-49
2022/09/25 04:57:05;;;;;;;;;;;;;;;6.02;100.00;100095.72;3057240;19;20338;-48
2022/09/25 04:58:07;;;;;;;;;;;;;;;6.04;100.00;100093.81;3056268;19;20018;-49
2022/09/25 04:59:11;;;;;;;;;;;;;;;6.07;100.00;100094.53;3055836;19;19923;-49
2022/09/25 05:00:15;;;;;;;;;;;;;;;6.11;100.00;100085.53;3055093;19;20094;-53
2022/09/25 05:01:20;;;;;;;;;;;;;;;6.14;100.00;100093.31;3056730;19;19948;-48
2022/09/25 05:02:26;;;;;;;;;;;;;;;6.20;100.00;100091.28;3057148;19;19919;-49
2022/09/25 05:03:32;;;;;;;;;;;;;;;6.25;100.00;100091.94;3057663;19;19914;-51
2022/09/25 05:04:34;;;;;;;;;;;;;;;6.31;100.00;100107.50;3057456;19;19998;-51
2022/09/25 05:05:38;;;;;;;;;;;;;;;6.36;100.00;100101.06;3055499;19;19928;-47
2022/09/25 05:06:40;;;;;;;;;;;;;;;6.43;100.00;100102.44;3056124;19;20396;-48
2022/09/25 05:07:55;;;;;;;;;;;;;;;6.51;100.00;100107.38;3056411;19;19928;-50
2022/09/25 05:08:57;;;;;;;;;;;;;;;6.58;100.00;100106.13;3057523;19;19922;-48
2022/09/25 05:10:01;;;;;;;;;;;;;;;6.64;100.00;100099.66;3057592;19;20003;-48
2022/09/25 05:11:03;;;;;;;;;;;;;;;6.65;100.00;100096.91;3057306;19;19946;-50
2022/09/25 05:12:08;;;;;;;;;;;;;;;6.79;100.00;100115.59;3057284;19;19970;-49
2022/09/25 05:13:10;;;;;;;;;;;;;;;6.86;100.00;100111.72;3056037;19;19993;-48
2022/09/25 05:14:14;;;;;;;;;;;;;;;6.94;100.00;100118.41;3055336;19;19936;-50
2022/09/25 05:15:16;;;;;;;;;;;;;;;7.01;100.00;100109.16;3056159;19;20030;-48
2022/09/25 05:16:21;;;;;;;;;;;;;;;7.08;100.00;100110.56;3056818;19;19926;-51
2022/09/25 05:17:23;;;;;;;;;;;;;;;7.15;100.00;100117.25;3056279;19;19922;-50
2022/09/25 05:18:27;;;;;;;;;;;;;;;7.21;100.00;100116.94;3057460;19;20386;-49
2022/09/25 05:19:29;;;;;;;;;;;;;;;7.28;100.00;100112.16;3057087;19;20354;-49
2022/09/25 05:20:34;;;;;;;;;;;;;;;7.34;100.00;100118.00;3055602;19;20296;-50
2022/09/25 05:21:36;;;;;;;;;;;;;;;7.41;100.00;100118.50;3056478;19;19952;-49
2022/09/25 05:22:40;;;;;;;;;;;;;;;7.46;100.00;100116.47;3055975;19;19934;-50
2022/09/25 05:23:42;;;;;;;;;;;;;;;7.51;100.00;100123.22;3056264;19;19926;-49
2022/09/25 05:24:46;;;;;;;;;;;;;;;7.57;100.00;100124.72;3056036;19;19923;-50
2022/09/25 05:25:55;;;;;;;;;;;;;;;7.66;100.00;100128.63;3056245;19;19986;-50
2022/09/25 05:26:59;;;;;;;;;;;;;;;7.73;100.00;100125.56;3055982;19;19931;-48
2022/09/25 05:28:02;;;;;;;;;;;;;;;7.80;100.00;100126.09;2992100;19;19944;-48
2022/09/25 05:29:06;;;;;;;;;;;;;;;7.86;100.00;100125.72;3054931;19;20405;-48
2022/09/25 05:30:10;;;;;;;;;;;;;;;7.92;100.00;100131.56;3055886;19;19944;-49
2022/09/25 05:31:15;;;;;;;;;;;;;;;7.98;100.00;100130.34;3055739;19;19922;-50
2022/09/25 05:32:17;;;;;;;;;;;;;;;8.02;100.00;100131.91;3056576;19;19991;-50
2022/09/25 05:33:22;;;;;;;;;;;;;;;8.09;100.00;100133.25;3053953;19;19919;-50
2022/09/25 05:34:24;;;;;;;;;;;;;;;8.14;100.00;100141.81;3053610;19;20092;-49
2022/09/25 05:35:29;;;;;;;;;;;;;;;8.21;100.00;100142.34;3052976;19;19982;-48
2022/09/25 05:36:32;;;;;;;;;;;;;;;8.25;100.00;100155.34;3054451;19;21056;-50
2022/09/25 05:37:36;;;;;;;;;;;;;;;8.33;100.00;100151.47;3054154;19;19926;-50
2022/09/25 05:38:38;;;;;;;;;;;;;;;8.41;100.00;100157.19;3055716;19;19915;-50
2022/09/25 05:39:43;;;;;;;;;;;;;;;8.45;100.00;100156.06;3054965;19;19961;-49
2022/09/25 05:40:45;;;;;;;;;;;;;;;8.52;100.00;100152.94;3055408;19;19986;-50
2022/09/25 05:41:49;;;;;;;;;;;;;;;8.60;100.00;100157.81;3054372;19;20023;-49
2022/09/25 05:42:51;;;;;;;;;;;;;;;8.66;100.00;100165.44;3055464;19;19953;-49
2022/09/25 05:43:56;;;;;;;;;;;;;;;8.74;100.00;100162.31;3055287;19;19930;-51